sensor_id;sensor_type;location;lat;lon;timestamp;P1;durP1;ratioP1;P2;durP2;ratioP2
73693;SDS011;61997;53.974;11.670;2023-05-17T00:01:40;7.32;;;3.25;;
73693;SDS011;61997;53.974;11.670;2023-05-17T00:04:06;7.57;;;3.70;;
73693;SDS011;61997;53.974;11.670;2023-05-17T00:06:31;4.70;;;3.30;;
73693;SDS011;61997;53.974;11.670;2023-05-17T00:08:58;7.07;;;3.47;;
73693;SDS011;61997;53.974;11.670;2023-05-17T00:11:24;7.47;;;3.45;;
73693;SDS011;61997;53.974;11.670;2023-05-17T00:13:49;7.22;;;3.30;;
73693;SDS011;61997;53.974;11.670;2023-05-17T00:16:15;9.35;;;4.00;;
73693;SDS011;61997;53.974;11.670;2023-05-17T00:18:40;7.20;;;3.63;;
73693;SDS011;61997;53.974;11.670;2023-05-17T00:21:05;8.60;;;3.75;;
73693;SDS011;61997;53.974;11.670;2023-05-17T00:23:31;8.13;;;3.20;;
73693;SDS011;61997;53.974;11.670;2023-05-17T00:25:56;8.00;;;4.03;;
73693;SDS011;61997;53.974;11.670;2023-05-17T00:28:22;7.53;;;3.42;;
73693;SDS011;61997;53.974;11.670;2023-05-17T00:30:47;6.22;;;3.30;;
73693;SDS011;61997;53.974;11.670;2023-05-17T00:33:12;6.93;;;3.83;;
73693;SDS011;61997;53.974;11.670;2023-05-17T00:35:38;7.07;;;3.30;;
73693;SDS011;61997;53.974;11.670;2023-05-17T00:38:03;8.30;;;3.60;;
73693;SDS011;61997;53.974;11.670;2023-05-17T00:40:29;7.05;;;3.00;;
73693;SDS011;61997;53.974;11.670;2023-05-17T00:42:55;6.57;;;3.10;;
73693;SDS011;61997;53.974;11.670;2023-05-17T00:45:20;7.95;;;3.58;;
73693;SDS011;61997;53.974;11.670;2023-05-17T00:47:46;7.00;;;3.30;;
73693;SDS011;61997;53.974;11.670;2023-05-17T00:50:11;7.65;;;3.58;;
73693;SDS011;61997;53.974;11.670;2023-05-17T00:52:37;8.45;;;3.65;;
73693;SDS011;61997;53.974;11.670;2023-05-17T00:55:02;6.05;;;3.20;;
73693;SDS011;61997;53.974;11.670;2023-05-17T00:57:28;6.50;;;3.65;;
73693;SDS011;61997;53.974;11.670;2023-05-17T00:59:54;7.07;;;3.22;;
73693;SDS011;61997;53.974;11.670;2023-05-17T01:02:20;6.50;;;3.03;;
73693;SDS011;61997;53.974;11.670;2023-05-17T01:04:45;9.93;;;3.50;;
73693;SDS011;61997;53.974;11.670;2023-05-17T01:07:12;8.98;;;4.03;;
73693;SDS011;61997;53.974;11.670;2023-05-17T01:09:37;6.68;;;3.00;;
73693;SDS011;61997;53.974;11.670;2023-05-17T01:12:49;5.85;;;3.53;;
73693;SDS011;61997;53.974;11.670;2023-05-17T01:15:02;5.97;;;3.35;;
73693;SDS011;61997;53.974;11.670;2023-05-17T01:28:06;6.22;;;2.92;;
73693;SDS011;61997;53.974;11.670;2023-05-17T01:30:32;5.05;;;3.10;;
73693;SDS011;61997;53.974;11.670;2023-05-17T01:32:58;6.15;;;2.92;;
73693;SDS011;61997;53.974;11.670;2023-05-17T01:35:24;6.70;;;3.33;;
73693;SDS011;61997;53.974;11.670;2023-05-17T01:37:53;5.68;;;3.08;;
73693;SDS011;61997;53.974;11.670;2023-05-17T01:40:19;6.95;;;3.40;;
73693;SDS011;61997;53.974;11.670;2023-05-17T01:42:46;4.70;;;2.70;;
73693;SDS011;61997;53.974;11.670;2023-05-17T01:50:47;5.82;;;2.97;;
73693;SDS011;61997;53.974;11.670;2023-05-17T01:53:24;5.68;;;2.85;;
73693;SDS011;61997;53.974;11.670;2023-05-17T01:56:03;6.82;;;3.33;;
73693;SDS011;61997;53.974;11.670;2023-05-17T01:58:29;6.80;;;2.58;;
73693;SDS011;61997;53.974;11.670;2023-05-17T02:00:55;7.00;;;3.22;;
73693;SDS011;61997;53.974;11.670;2023-05-17T02:03:21;6.57;;;3.10;;
73693;SDS011;61997;53.974;11.670;2023-05-17T02:05:46;5.40;;;2.90;;
73693;SDS011;61997;53.974;11.670;2023-05-17T02:08:12;5.88;;;2.85;;
73693;SDS011;61997;53.974;11.670;2023-05-17T02:10:38;5.03;;;2.65;;
73693;SDS011;61997;53.974;11.670;2023-05-17T02:13:03;5.53;;;2.78;;
73693;SDS011;61997;53.974;11.670;2023-05-17T02:15:29;6.25;;;2.50;;
73693;SDS011;61997;53.974;11.670;2023-05-17T02:17:54;7.63;;;3.00;;
73693;SDS011;61997;53.974;11.670;2023-05-17T02:20:20;7.45;;;3.22;;
73693;SDS011;61997;53.974;11.670;2023-05-17T02:22:46;5.15;;;2.55;;
73693;SDS011;61997;53.974;11.670;2023-05-17T02:25:11;5.43;;;2.90;;
73693;SDS011;61997;53.974;11.670;2023-05-17T02:27:36;5.15;;;2.45;;
73693;SDS011;61997;53.974;11.670;2023-05-17T02:30:02;6.07;;;2.65;;
73693;SDS011;61997;53.974;11.670;2023-05-17T02:32:28;4.95;;;2.63;;
73693;SDS011;61997;53.974;11.670;2023-05-17T02:34:54;6.05;;;2.60;;
73693;SDS011;61997;53.974;11.670;2023-05-17T02:37:19;7.55;;;2.58;;
73693;SDS011;61997;53.974;11.670;2023-05-17T02:39:45;5.30;;;2.60;;
73693;SDS011;61997;53.974;11.670;2023-05-17T02:42:11;4.78;;;2.47;;
73693;SDS011;61997;53.974;11.670;2023-05-17T02:44:36;6.15;;;2.63;;
73693;SDS011;61997;53.974;11.670;2023-05-17T02:47:01;4.05;;;2.25;;
73693;SDS011;61997;53.974;11.670;2023-05-17T02:49:27;5.75;;;2.42;;
73693;SDS011;61997;53.974;11.670;2023-05-17T02:51:52;5.72;;;2.78;;
73693;SDS011;61997;53.974;11.670;2023-05-17T02:54:17;4.45;;;2.38;;
73693;SDS011;61997;53.974;11.670;2023-05-17T02:56:43;4.82;;;2.38;;
73693;SDS011;61997;53.974;11.670;2023-05-17T02:59:08;4.63;;;2.30;;
73693;SDS011;61997;53.974;11.670;2023-05-17T03:01:34;4.25;;;2.20;;
73693;SDS011;61997;53.974;11.670;2023-05-17T03:04:00;5.15;;;2.22;;
73693;SDS011;61997;53.974;11.670;2023-05-17T03:06:25;4.90;;;2.42;;
73693;SDS011;61997;53.974;11.670;2023-05-17T03:08:50;5.57;;;2.70;;
73693;SDS011;61997;53.974;11.670;2023-05-17T03:11:16;3.67;;;1.98;;
73693;SDS011;61997;53.974;11.670;2023-05-17T03:13:41;5.63;;;2.42;;
73693;SDS011;61997;53.974;11.670;2023-05-17T03:16:07;4.78;;;2.35;;
73693;SDS011;61997;53.974;11.670;2023-05-17T03:18:33;5.13;;;2.13;;
73693;SDS011;61997;53.974;11.670;2023-05-17T03:20:59;4.35;;;2.05;;
73693;SDS011;61997;53.974;11.670;2023-05-17T03:23:24;4.95;;;2.42;;
73693;SDS011;61997;53.974;11.670;2023-05-17T03:25:50;5.78;;;2.13;;
73693;SDS011;61997;53.974;11.670;2023-05-17T03:28:15;4.80;;;2.08;;
73693;SDS011;61997;53.974;11.670;2023-05-17T03:30:40;6.32;;;2.50;;
73693;SDS011;61997;53.974;11.670;2023-05-17T03:33:06;4.70;;;2.33;;
73693;SDS011;61997;53.974;11.670;2023-05-17T03:35:31;4.88;;;2.47;;
73693;SDS011;61997;53.974;11.670;2023-05-17T03:37:56;4.38;;;2.17;;
73693;SDS011;61997;53.974;11.670;2023-05-17T03:40:22;4.97;;;1.92;;
73693;SDS011;61997;53.974;11.670;2023-05-17T03:42:47;5.20;;;2.25;;
73693;SDS011;61997;53.974;11.670;2023-05-17T03:45:13;4.57;;;2.10;;
73693;SDS011;61997;53.974;11.670;2023-05-17T03:47:39;3.15;;;1.63;;
73693;SDS011;61997;53.974;11.670;2023-05-17T03:50:07;4.50;;;1.70;;
73693;SDS011;61997;53.974;11.670;2023-05-17T03:52:32;4.50;;;2.30;;
73693;SDS011;61997;53.974;11.670;2023-05-17T03:54:58;5.25;;;2.42;;
73693;SDS011;61997;53.974;11.670;2023-05-17T03:57:23;5.85;;;2.00;;
73693;SDS011;61997;53.974;11.670;2023-05-17T03:59:48;5.68;;;1.83;;
73693;SDS011;61997;53.974;11.670;2023-05-17T04:02:14;4.55;;;1.98;;
73693;SDS011;61997;53.974;11.670;2023-05-17T04:04:40;3.42;;;1.83;;
73693;SDS011;61997;53.974;11.670;2023-05-17T04:07:06;4.68;;;1.80;;
73693;SDS011;61997;53.974;11.670;2023-05-17T04:09:31;4.35;;;1.77;;
73693;SDS011;61997;53.974;11.670;2023-05-17T04:11:58;3.42;;;1.92;;
73693;SDS011;61997;53.974;11.670;2023-05-17T04:14:24;3.85;;;1.88;;
73693;SDS011;61997;53.974;11.670;2023-05-17T04:16:50;4.78;;;2.30;;
73693;SDS011;61997;53.974;11.670;2023-05-17T04:19:15;4.60;;;2.10;;
73693;SDS011;61997;53.974;11.670;2023-05-17T04:21:40;4.25;;;1.70;;
73693;SDS011;61997;53.974;11.670;2023-05-17T04:24:06;5.35;;;1.60;;
73693;SDS011;61997;53.974;11.670;2023-05-17T04:26:31;5.70;;;1.90;;
73693;SDS011;61997;53.974;11.670;2023-05-17T04:28:57;4.10;;;1.60;;
73693;SDS011;61997;53.974;11.670;2023-05-17T04:31:22;5.78;;;1.80;;
73693;SDS011;61997;53.974;11.670;2023-05-17T04:33:47;4.35;;;1.70;;
73693;SDS011;61997;53.974;11.670;2023-05-17T04:36:13;3.95;;;1.65;;
73693;SDS011;61997;53.974;11.670;2023-05-17T04:38:38;4.70;;;2.25;;
73693;SDS011;61997;53.974;11.670;2023-05-17T04:41:04;4.55;;;1.80;;
73693;SDS011;61997;53.974;11.670;2023-05-17T04:43:32;4.95;;;1.70;;
73693;SDS011;61997;53.974;11.670;2023-05-17T04:45:58;6.30;;;1.70;;
73693;SDS011;61997;53.974;11.670;2023-05-17T04:48:24;3.83;;;1.50;;
73693;SDS011;61997;53.974;11.670;2023-05-17T04:50:51;4.57;;;1.60;;
73693;SDS011;61997;53.974;11.670;2023-05-17T04:53:17;3.92;;;1.50;;
73693;SDS011;61997;53.974;11.670;2023-05-17T04:55:42;5.38;;;1.75;;
73693;SDS011;61997;53.974;11.670;2023-05-17T04:58:07;3.17;;;1.20;;
73693;SDS011;61997;53.974;11.670;2023-05-17T05:00:33;4.60;;;1.83;;
73693;SDS011;61997;53.974;11.670;2023-05-17T05:02:59;4.10;;;1.52;;
73693;SDS011;61997;53.974;11.670;2023-05-17T05:05:25;3.70;;;1.55;;
73693;SDS011;61997;53.974;11.670;2023-05-17T05:07:51;5.03;;;1.75;;
73693;SDS011;61997;53.974;11.670;2023-05-17T05:10:17;4.03;;;1.52;;
73693;SDS011;61997;53.974;11.670;2023-05-17T05:12:43;2.95;;;1.20;;
73693;SDS011;61997;53.974;11.670;2023-05-17T05:15:09;5.32;;;1.90;;
73693;SDS011;61997;53.974;11.670;2023-05-17T05:17:34;3.20;;;1.60;;
73693;SDS011;61997;53.974;11.670;2023-05-17T05:20:00;3.97;;;1.52;;
73693;SDS011;61997;53.974;11.670;2023-05-17T05:22:26;6.00;;;1.60;;
73693;SDS011;61997;53.974;11.670;2023-05-17T05:24:51;3.08;;;1.30;;
73693;SDS011;61997;53.974;11.670;2023-05-17T05:27:17;4.20;;;1.52;;
73693;SDS011;61997;53.974;11.670;2023-05-17T05:29:42;2.88;;;1.70;;
73693;SDS011;61997;53.974;11.670;2023-05-17T05:32:08;2.70;;;1.25;;
73693;SDS011;61997;53.974;11.670;2023-05-17T05:34:33;4.60;;;1.42;;
73693;SDS011;61997;53.974;11.670;2023-05-17T05:36:59;4.10;;;1.30;;
73693;SDS011;61997;53.974;11.670;2023-05-17T05:39:25;6.05;;;1.60;;
73693;SDS011;61997;53.974;11.670;2023-05-17T05:41:52;3.78;;;1.60;;
73693;SDS011;61997;53.974;11.670;2023-05-17T05:44:17;4.65;;;1.23;;
73693;SDS011;61997;53.974;11.670;2023-05-17T05:46:43;2.92;;;1.60;;
73693;SDS011;61997;53.974;11.670;2023-05-17T05:49:08;2.97;;;1.45;;
73693;SDS011;61997;53.974;11.670;2023-05-17T05:51:34;2.70;;;1.27;;
73693;SDS011;61997;53.974;11.670;2023-05-17T05:54:00;3.20;;;1.40;;
73693;SDS011;61997;53.974;11.670;2023-05-17T05:56:26;4.45;;;1.27;;
73693;SDS011;61997;53.974;11.670;2023-05-17T05:58:52;5.28;;;1.83;;
73693;SDS011;61997;53.974;11.670;2023-05-17T06:01:18;2.47;;;1.13;;
73693;SDS011;61997;53.974;11.670;2023-05-17T06:03:44;5.47;;;1.70;;
73693;SDS011;61997;53.974;11.670;2023-05-17T06:06:09;2.10;;;1.10;;
73693;SDS011;61997;53.974;11.670;2023-05-17T06:08:35;5.15;;;1.73;;
73693;SDS011;61997;53.974;11.670;2023-05-17T06:11:01;4.75;;;1.40;;
73693;SDS011;61997;53.974;11.670;2023-05-17T06:13:26;2.28;;;1.15;;
73693;SDS011;61997;53.974;11.670;2023-05-17T06:15:52;4.82;;;1.33;;
73693;SDS011;61997;53.974;11.670;2023-05-17T06:18:17;4.55;;;1.40;;
73693;SDS011;61997;53.974;11.670;2023-05-17T06:20:43;4.22;;;1.50;;
73693;SDS011;61997;53.974;11.670;2023-05-17T06:23:09;2.47;;;1.13;;
73693;SDS011;61997;53.974;11.670;2023-05-17T06:25:34;2.28;;;1.30;;
73693;SDS011;61997;53.974;11.670;2023-05-17T06:28:01;3.60;;;1.40;;
73693;SDS011;61997;53.974;11.670;2023-05-17T06:30:28;3.38;;;1.25;;
73693;SDS011;61997;53.974;11.670;2023-05-17T06:32:54;3.20;;;1.30;;
73693;SDS011;61997;53.974;11.670;2023-05-17T06:35:19;4.47;;;1.27;;
73693;SDS011;61997;53.974;11.670;2023-05-17T06:37:44;4.13;;;1.67;;
73693;SDS011;61997;53.974;11.670;2023-05-17T06:40:10;3.80;;;1.30;;
73693;SDS011;61997;53.974;11.670;2023-05-17T06:42:36;4.00;;;1.35;;
73693;SDS011;61997;53.974;11.670;2023-05-17T06:45:02;2.30;;;1.20;;
73693;SDS011;61997;53.974;11.670;2023-05-17T06:47:27;3.58;;;1.27;;
73693;SDS011;61997;53.974;11.670;2023-05-17T06:49:54;4.80;;;1.20;;
73693;SDS011;61997;53.974;11.670;2023-05-17T06:52:19;3.13;;;1.08;;
73693;SDS011;61997;53.974;11.670;2023-05-17T06:54:45;4.47;;;1.65;;
73693;SDS011;61997;53.974;11.670;2023-05-17T06:57:10;2.63;;;1.27;;
73693;SDS011;61997;53.974;11.670;2023-05-17T06:59:36;4.93;;;1.40;;
73693;SDS011;61997;53.974;11.670;2023-05-17T07:02:01;4.18;;;1.35;;
73693;SDS011;61997;53.974;11.670;2023-05-17T07:04:27;3.65;;;0.95;;
73693;SDS011;61997;53.974;11.670;2023-05-17T07:06:53;4.47;;;1.35;;
73693;SDS011;61997;53.974;11.670;2023-05-17T07:09:19;3.63;;;1.08;;
73693;SDS011;61997;53.974;11.670;2023-05-17T07:11:45;3.38;;;1.38;;
73693;SDS011;61997;53.974;11.670;2023-05-17T07:14:10;1.98;;;1.13;;
73693;SDS011;61997;53.974;11.670;2023-05-17T07:16:36;3.00;;;1.17;;
73693;SDS011;61997;53.974;11.670;2023-05-17T07:19:01;1.98;;;1.00;;
73693;SDS011;61997;53.974;11.670;2023-05-17T07:21:27;4.88;;;1.30;;
73693;SDS011;61997;53.974;11.670;2023-05-17T07:23:52;2.45;;;1.10;;
73693;SDS011;61997;53.974;11.670;2023-05-17T07:26:18;3.92;;;1.20;;
73693;SDS011;61997;53.974;11.670;2023-05-17T07:28:44;3.88;;;1.30;;
73693;SDS011;61997;53.974;11.670;2023-05-17T07:31:10;7.13;;;1.73;;
73693;SDS011;61997;53.974;11.670;2023-05-17T07:33:36;2.25;;;1.17;;
73693;SDS011;61997;53.974;11.670;2023-05-17T07:36:01;3.22;;;1.20;;
73693;SDS011;61997;53.974;11.670;2023-05-17T07:38:27;4.78;;;1.15;;
73693;SDS011;61997;53.974;11.670;2023-05-17T07:40:52;2.85;;;1.17;;
73693;SDS011;61997;53.974;11.670;2023-05-17T07:43:18;2.08;;;1.00;;
73693;SDS011;61997;53.974;11.670;2023-05-17T07:45:43;3.75;;;1.20;;
73693;SDS011;61997;53.974;11.670;2023-05-17T07:48:09;3.35;;;1.23;;
73693;SDS011;61997;53.974;11.670;2023-05-17T07:50:35;1.80;;;0.95;;
73693;SDS011;61997;53.974;11.670;2023-05-17T07:53:00;5.18;;;1.00;;
73693;SDS011;61997;53.974;11.670;2023-05-17T07:55:26;1.95;;;0.90;;
73693;SDS011;61997;53.974;11.670;2023-05-17T07:57:51;4.28;;;0.95;;
73693;SDS011;61997;53.974;11.670;2023-05-17T08:00:17;3.67;;;1.20;;
73693;SDS011;61997;53.974;11.670;2023-05-17T08:02:43;3.60;;;1.00;;
73693;SDS011;61997;53.974;11.670;2023-05-17T08:05:10;2.53;;;1.00;;
73693;SDS011;61997;53.974;11.670;2023-05-17T08:07:35;3.10;;;1.10;;
73693;SDS011;61997;53.974;11.670;2023-05-17T08:10:01;2.97;;;1.05;;
73693;SDS011;61997;53.974;11.670;2023-05-17T08:12:26;2.65;;;0.90;;
73693;SDS011;61997;53.974;11.670;2023-05-17T08:14:52;3.88;;;1.08;;
73693;SDS011;61997;53.974;11.670;2023-05-17T08:17:18;2.80;;;1.15;;
73693;SDS011;61997;53.974;11.670;2023-05-17T08:19:43;4.22;;;1.30;;
73693;SDS011;61997;53.974;11.670;2023-05-17T08:22:08;3.65;;;1.33;;
73693;SDS011;61997;53.974;11.670;2023-05-17T08:24:34;5.03;;;1.10;;
73693;SDS011;61997;53.974;11.670;2023-05-17T08:27:00;3.35;;;1.42;;
73693;SDS011;61997;53.974;11.670;2023-05-17T08:29:26;2.35;;;0.93;;
73693;SDS011;61997;53.974;11.670;2023-05-17T08:31:52;3.22;;;1.10;;
73693;SDS011;61997;53.974;11.670;2023-05-17T08:34:18;2.00;;;0.90;;
73693;SDS011;61997;53.974;11.670;2023-05-17T08:36:44;2.88;;;1.00;;
73693;SDS011;61997;53.974;11.670;2023-05-17T08:39:09;2.33;;;1.02;;
73693;SDS011;61997;53.974;11.670;2023-05-17T08:41:35;4.22;;;1.10;;
73693;SDS011;61997;53.974;11.670;2023-05-17T08:44:01;3.60;;;1.17;;
73693;SDS011;61997;53.974;11.670;2023-05-17T08:46:28;3.15;;;1.75;;
73693;SDS011;61997;53.974;11.670;2023-05-17T08:48:55;4.30;;;1.30;;
73693;SDS011;61997;53.974;11.670;2023-05-17T08:51:24;2.13;;;1.00;;
73693;SDS011;61997;53.974;11.670;2023-05-17T08:53:50;3.45;;;1.25;;
73693;SDS011;61997;53.974;11.670;2023-05-17T08:56:16;2.53;;;0.95;;
73693;SDS011;61997;53.974;11.670;2023-05-17T08:58:42;2.17;;;1.10;;
73693;SDS011;61997;53.974;11.670;2023-05-17T09:01:08;2.58;;;1.00;;
73693;SDS011;61997;53.974;11.670;2023-05-17T09:03:36;2.75;;;1.00;;
73693;SDS011;61997;53.974;11.670;2023-05-17T09:06:04;3.80;;;1.05;;
73693;SDS011;61997;53.974;11.670;2023-05-17T09:08:29;3.90;;;1.20;;
73693;SDS011;61997;53.974;11.670;2023-05-17T09:10:56;3.67;;;1.15;;
73693;SDS011;61997;53.974;11.670;2023-05-17T09:13:23;4.18;;;1.17;;
73693;SDS011;61997;53.974;11.670;2023-05-17T09:15:50;3.40;;;1.00;;
73693;SDS011;61997;53.974;11.670;2023-05-17T09:18:15;4.10;;;1.15;;
73693;SDS011;61997;53.974;11.670;2023-05-17T09:20:41;4.43;;;1.20;;
73693;SDS011;61997;53.974;11.670;2023-05-17T09:23:08;3.63;;;1.30;;
73693;SDS011;61997;53.974;11.670;2023-05-17T09:25:37;2.63;;;1.13;;
73693;SDS011;61997;53.974;11.670;2023-05-17T09:28:03;3.45;;;1.15;;
73693;SDS011;61997;53.974;11.670;2023-05-17T09:30:33;1.77;;;0.88;;
73693;SDS011;61997;53.974;11.670;2023-05-17T09:35:31;2.67;;;1.33;;
73693;SDS011;61997;53.974;11.670;2023-05-17T09:38:10;3.40;;;1.40;;
73693;SDS011;61997;53.974;11.670;2023-05-17T09:40:42;4.47;;;1.38;;
73693;SDS011;61997;53.974;11.670;2023-05-17T09:43:09;4.25;;;1.92;;
73693;SDS011;61997;53.974;11.670;2023-05-17T09:45:36;3.75;;;1.42;;
73693;SDS011;61997;53.974;11.670;2023-05-17T09:50:44;4.38;;;1.42;;
73693;SDS011;61997;53.974;11.670;2023-05-17T09:53:29;4.70;;;1.38;;
73693;SDS011;61997;53.974;11.670;2023-05-17T09:55:57;4.05;;;1.50;;
73693;SDS011;61997;53.974;11.670;2023-05-17T09:58:27;3.10;;;1.23;;
73693;SDS011;61997;53.974;11.670;2023-05-17T10:00:53;3.42;;;1.40;;
73693;SDS011;61997;53.974;11.670;2023-05-17T10:03:23;3.78;;;1.55;;
73693;SDS011;61997;53.974;11.670;2023-05-17T10:05:51;4.15;;;1.27;;
73693;SDS011;61997;53.974;11.670;2023-05-17T10:08:20;2.70;;;1.45;;
73693;SDS011;61997;53.974;11.670;2023-05-17T10:10:47;3.30;;;1.48;;
73693;SDS011;61997;53.974;11.670;2023-05-17T10:13:14;4.38;;;1.58;;
73693;SDS011;61997;53.974;11.670;2023-05-17T10:15:41;5.20;;;1.30;;
73693;SDS011;61997;53.974;11.670;2023-05-17T10:18:07;4.85;;;1.40;;
73693;SDS011;61997;53.974;11.670;2023-05-17T10:20:33;2.28;;;1.20;;
73693;SDS011;61997;53.974;11.670;2023-05-17T10:22:59;4.97;;;1.85;;
73693;SDS011;61997;53.974;11.670;2023-05-17T10:25:24;3.47;;;1.33;;
73693;SDS011;61997;53.974;11.670;2023-05-17T10:27:50;4.63;;;1.45;;
73693;SDS011;61997;53.974;11.670;2023-05-17T10:30:16;3.72;;;1.40;;
73693;SDS011;61997;53.974;11.670;2023-05-17T10:32:43;4.60;;;1.70;;
73693;SDS011;61997;53.974;11.670;2023-05-17T10:35:09;3.45;;;1.38;;
73693;SDS011;61997;53.974;11.670;2023-05-17T10:37:34;4.15;;;1.60;;
73693;SDS011;61997;53.974;11.670;2023-05-17T10:40:00;4.75;;;1.60;;
73693;SDS011;61997;53.974;11.670;2023-05-17T10:42:25;3.15;;;1.40;;
73693;SDS011;61997;53.974;11.670;2023-05-17T10:44:52;4.03;;;1.75;;
73693;SDS011;61997;53.974;11.670;2023-05-17T10:47:18;3.60;;;1.63;;
73693;SDS011;61997;53.974;11.670;2023-05-17T10:49:44;2.92;;;1.50;;
73693;SDS011;61997;53.974;11.670;2023-05-17T10:52:15;3.67;;;1.95;;
73693;SDS011;61997;53.974;11.670;2023-05-17T10:54:42;5.85;;;1.85;;
73693;SDS011;61997;53.974;11.670;2023-05-17T10:57:11;3.05;;;1.60;;
73693;SDS011;61997;53.974;11.670;2023-05-17T10:59:55;3.97;;;1.58;;
73693;SDS011;61997;53.974;11.670;2023-05-17T11:02:22;3.95;;;1.77;;
73693;SDS011;61997;53.974;11.670;2023-05-17T11:04:49;4.18;;;1.40;;
73693;SDS011;61997;53.974;11.670;2023-05-17T11:07:20;4.65;;;1.52;;
73693;SDS011;61997;53.974;11.670;2023-05-17T11:15:13;5.65;;;1.90;;
73693;SDS011;61997;53.974;11.670;2023-05-17T11:22:09;7.32;;;1.63;;
73693;SDS011;61997;53.974;11.670;2023-05-17T11:24:36;4.75;;;1.75;;
73693;SDS011;61997;53.974;11.670;2023-05-17T11:29:31;3.75;;;1.23;;
73693;SDS011;61997;53.974;11.670;2023-05-17T11:31:57;2.88;;;1.33;;
73693;SDS011;61997;53.974;11.670;2023-05-17T11:34:22;2.13;;;1.15;;
73693;SDS011;61997;53.974;11.670;2023-05-17T11:36:53;3.38;;;2.30;;
73693;SDS011;61997;53.974;11.670;2023-05-17T11:39:22;3.05;;;1.33;;
73693;SDS011;61997;53.974;11.670;2023-05-17T11:41:55;5.30;;;1.50;;
73693;SDS011;61997;53.974;11.670;2023-05-17T11:44:27;2.42;;;1.30;;
73693;SDS011;61997;53.974;11.670;2023-05-17T11:49:35;2.88;;;1.25;;
73693;SDS011;61997;53.974;11.670;2023-05-17T11:52:01;5.18;;;1.83;;
73693;SDS011;61997;53.974;11.670;2023-05-17T11:54:27;4.95;;;1.77;;
73693;SDS011;61997;53.974;11.670;2023-05-17T11:56:56;4.38;;;1.45;;
73693;SDS011;61997;53.974;11.670;2023-05-17T11:59:24;4.13;;;1.52;;
73693;SDS011;61997;53.974;11.670;2023-05-17T12:01:50;3.85;;;1.67;;
73693;SDS011;61997;53.974;11.670;2023-05-17T12:04:24;5.07;;;1.67;;
73693;SDS011;61997;53.974;11.670;2023-05-17T12:06:54;4.10;;;1.60;;
73693;SDS011;61997;53.974;11.670;2023-05-17T12:09:22;3.97;;;1.70;;
73693;SDS011;61997;53.974;11.670;2023-05-17T12:11:51;3.88;;;1.75;;
73693;SDS011;61997;53.974;11.670;2023-05-17T12:14:18;6.93;;;2.13;;
73693;SDS011;61997;53.974;11.670;2023-05-17T12:16:48;5.30;;;1.67;;
73693;SDS011;61997;53.974;11.670;2023-05-17T12:19:17;4.72;;;1.70;;
73693;SDS011;61997;53.974;11.670;2023-05-17T12:21:45;4.82;;;1.27;;
73693;SDS011;61997;53.974;11.670;2023-05-17T12:24:14;2.00;;;1.20;;
73693;SDS011;61997;53.974;11.670;2023-05-17T12:26:44;4.00;;;1.50;;
73693;SDS011;61997;53.974;11.670;2023-05-17T12:29:10;6.57;;;1.45;;
73693;SDS011;61997;53.974;11.670;2023-05-17T12:31:47;4.68;;;1.73;;
73693;SDS011;61997;53.974;11.670;2023-05-17T12:34:15;4.72;;;1.40;;
73693;SDS011;61997;53.974;11.670;2023-05-17T12:36:42;2.65;;;1.23;;
73693;SDS011;61997;53.974;11.670;2023-05-17T12:39:08;2.80;;;1.33;;
73693;SDS011;61997;53.974;11.670;2023-05-17T12:41:35;3.45;;;1.52;;
73693;SDS011;61997;53.974;11.670;2023-05-17T12:44:02;4.70;;;1.63;;
73693;SDS011;61997;53.974;11.670;2023-05-17T12:46:29;3.33;;;1.38;;
73693;SDS011;61997;53.974;11.670;2023-05-17T12:48:59;5.53;;;1.40;;
73693;SDS011;61997;53.974;11.670;2023-05-17T12:51:26;4.22;;;1.40;;
73693;SDS011;61997;53.974;11.670;2023-05-17T12:53:54;7.00;;;1.67;;
73693;SDS011;61997;53.974;11.670;2023-05-17T12:56:21;3.55;;;1.33;;
73693;SDS011;61997;53.974;11.670;2023-05-17T12:59:08;5.00;;;1.45;;
73693;SDS011;61997;53.974;11.670;2023-05-17T13:04:06;4.63;;;1.42;;
73693;SDS011;61997;53.974;11.670;2023-05-17T13:06:45;2.95;;;1.40;;
73693;SDS011;61997;53.974;11.670;2023-05-17T13:09:15;3.15;;;1.20;;
73693;SDS011;61997;53.974;11.670;2023-05-17T13:12:02;2.90;;;1.48;;
73693;SDS011;61997;53.974;11.670;2023-05-17T13:17:08;4.95;;;1.85;;
73693;SDS011;61997;53.974;11.670;2023-05-17T13:19:35;6.43;;;1.73;;
73693;SDS011;61997;53.974;11.670;2023-05-17T13:22:02;4.07;;;1.33;;
73693;SDS011;61997;53.974;11.670;2023-05-17T13:24:34;3.72;;;1.40;;
73693;SDS011;61997;53.974;11.670;2023-05-17T13:27:02;2.80;;;1.30;;
73693;SDS011;61997;53.974;11.670;2023-05-17T13:29:28;3.80;;;1.33;;
73693;SDS011;61997;53.974;11.670;2023-05-17T13:31:54;3.00;;;1.25;;
73693;SDS011;61997;53.974;11.670;2023-05-17T13:34:21;3.08;;;1.20;;
73693;SDS011;61997;53.974;11.670;2023-05-17T13:36:48;2.50;;;1.20;;
73693;SDS011;61997;53.974;11.670;2023-05-17T13:39:14;2.50;;;1.20;;
73693;SDS011;61997;53.974;11.670;2023-05-17T13:41:41;3.60;;;1.48;;
73693;SDS011;61997;53.974;11.670;2023-05-17T13:44:08;4.35;;;1.75;;
73693;SDS011;61997;53.974;11.670;2023-05-17T13:46:34;4.07;;;1.45;;
73693;SDS011;61997;53.974;11.670;2023-05-17T13:49:00;2.30;;;1.35;;
73693;SDS011;61997;53.974;11.670;2023-05-17T13:51:31;2.55;;;1.20;;
73693;SDS011;61997;53.974;11.670;2023-05-17T13:54:01;3.50;;;1.10;;
73693;SDS011;61997;53.974;11.670;2023-05-17T13:56:27;4.78;;;1.52;;
73693;SDS011;61997;53.974;11.670;2023-05-17T13:58:53;4.07;;;1.23;;
73693;SDS011;61997;53.974;11.670;2023-05-17T14:01:18;2.80;;;1.40;;
73693;SDS011;61997;53.974;11.670;2023-05-17T14:03:44;4.43;;;1.20;;
73693;SDS011;61997;53.974;11.670;2023-05-17T14:06:10;3.05;;;1.30;;
73693;SDS011;61997;53.974;11.670;2023-05-17T14:08:35;3.63;;;1.40;;
73693;SDS011;61997;53.974;11.670;2023-05-17T14:11:00;2.17;;;1.20;;
73693;SDS011;61997;53.974;11.670;2023-05-17T14:13:26;4.55;;;1.73;;
73693;SDS011;61997;53.974;11.670;2023-05-17T14:15:52;2.72;;;1.10;;
73693;SDS011;61997;53.974;11.670;2023-05-17T14:18:17;3.22;;;1.30;;
73693;SDS011;61997;53.974;11.670;2023-05-17T14:20:42;2.42;;;1.08;;
73693;SDS011;61997;53.974;11.670;2023-05-17T14:23:08;3.28;;;1.38;;
73693;SDS011;61997;53.974;11.670;2023-05-17T14:25:33;2.92;;;1.35;;
73693;SDS011;61997;53.974;11.670;2023-05-17T14:27:59;4.10;;;1.30;;
73693;SDS011;61997;53.974;11.670;2023-05-17T14:30:24;3.15;;;1.48;;
73693;SDS011;61997;53.974;11.670;2023-05-17T14:32:50;3.25;;;1.33;;
73693;SDS011;61997;53.974;11.670;2023-05-17T14:35:16;5.05;;;1.20;;
73693;SDS011;61997;53.974;11.670;2023-05-17T14:37:42;4.50;;;1.50;;
73693;SDS011;61997;53.974;11.670;2023-05-17T14:40:07;5.03;;;1.70;;
73693;SDS011;61997;53.974;11.670;2023-05-17T14:42:33;2.80;;;1.48;;
73693;SDS011;61997;53.974;11.670;2023-05-17T14:44:59;4.15;;;1.38;;
73693;SDS011;61997;53.974;11.670;2023-05-17T14:47:24;3.63;;;1.25;;
73693;SDS011;61997;53.974;11.670;2023-05-17T14:49:50;2.88;;;1.15;;
73693;SDS011;61997;53.974;11.670;2023-05-17T14:52:15;2.90;;;1.42;;
73693;SDS011;61997;53.974;11.670;2023-05-17T14:54:41;3.63;;;1.30;;
73693;SDS011;61997;53.974;11.670;2023-05-17T14:57:06;2.50;;;1.30;;
73693;SDS011;61997;53.974;11.670;2023-05-17T14:59:32;4.38;;;1.27;;
73693;SDS011;61997;53.974;11.670;2023-05-17T15:01:58;2.38;;;0.98;;
73693;SDS011;61997;53.974;11.670;2023-05-17T15:04:24;2.90;;;1.45;;
73693;SDS011;61997;53.974;11.670;2023-05-17T15:06:49;3.13;;;1.20;;
73693;SDS011;61997;53.974;11.670;2023-05-17T15:11:30;3.35;;;1.23;;
73693;SDS011;61997;53.974;11.670;2023-05-17T15:13:55;3.97;;;1.58;;